createdAt,value
2022-09-16T00:01:36.318Z,90.64
2022-09-16T00:04:03.262Z,90.84
2022-09-16T00:06:30.352Z,90.63
2022-09-16T00:09:00.979Z,90.91
2022-09-16T00:11:28.652Z,91.25
2022-09-16T00:13:55.089Z,91.67
2022-09-16T00:16:25.028Z,91.87
2022-09-16T00:18:56.156Z,92.21
2022-09-16T00:21:22.820Z,91.77
2022-09-16T00:23:49.311Z,92.29
2022-09-16T00:26:15.952Z,92.23
2022-09-16T00:28:42.738Z,92.43
2022-09-16T00:31:09.635Z,92.59
2022-09-16T00:33:36.128Z,92.48
2022-09-16T00:36:16.229Z,92.96
2022-09-16T00:38:43.596Z,92.05
2022-09-16T00:41:16.936Z,92.54
2022-09-16T00:43:51.034Z,92.24
2022-09-16T00:46:23.100Z,92.03
2022-09-16T00:48:49.970Z,91.33
2022-09-16T00:51:17.210Z,91.02
2022-09-16T00:54:02.133Z,92.03
2022-09-16T00:56:34.112Z,90.78
2022-09-16T00:59:10.812Z,91.15
2022-09-16T01:01:38.962Z,90.63
2022-09-16T01:04:22.578Z,91.66
2022-09-16T01:06:49.553Z,90.61
2022-09-16T01:09:18.066Z,90.68
2022-09-16T01:11:44.462Z,90.87
2022-09-16T01:14:40.606Z,90.84
2022-09-16T01:17:34.150Z,91.51
2022-09-16T01:20:34.656Z,91.18
2022-09-16T01:23:29.608Z,91.04
2022-09-16T01:26:15.792Z,91.08
2022-09-16T01:29:24.137Z,91.23
2022-09-16T01:32:03.761Z,90.80
2022-09-16T01:34:40.165Z,90.35
2022-09-16T01:37:38.981Z,91.32
2022-09-16T01:40:43.128Z,91.67
2022-09-16T01:43:25.946Z,91.54
2022-09-16T01:46:15.519Z,91.44
2022-09-16T01:48:57.820Z,91.50
2022-09-16T01:51:24.112Z,90.29
2022-09-16T01:54:07.134Z,91.34
2022-09-16T01:56:55.795Z,91.34
2022-09-16T01:59:39.575Z,91.42
2022-09-16T02:02:17.549Z,91.89
2022-09-16T02:04:50.437Z,91.53
2022-09-16T02:07:21.030Z,91.72
2022-09-16T02:10:06.585Z,92.35
2022-09-16T02:12:37.224Z,91.80
2022-09-16T02:15:09.547Z,91.91
2022-09-16T02:17:44.932Z,91.79
2022-09-16T02:20:20.225Z,92.08
2022-09-16T02:22:51.669Z,91.96
2022-09-16T02:25:19.542Z,91.70
2022-09-16T02:27:49.246Z,92.33
2022-09-16T02:30:19.296Z,92.54
2022-09-16T02:32:50.298Z,92.66
2022-09-16T02:35:19.623Z,92.77
2022-09-16T02:37:51.038Z,93.12
2022-09-16T02:40:24.366Z,93.09
2022-09-16T02:42:51.805Z,92.66
2022-09-16T02:45:18.487Z,92.68
2022-09-16T02:48:23.430Z,93.59
2022-09-16T02:50:59.115Z,93.07
2022-09-16T02:53:43.581Z,93.02
2022-09-16T02:56:31.025Z,92.95
2022-09-16T02:58:57.984Z,92.02
2022-09-16T03:01:25.923Z,92.01
2022-09-16T03:03:55.765Z,92.39
2022-09-16T03:06:25.295Z,92.29
2022-09-16T03:08:54.124Z,92.10
2022-09-16T03:11:31.716Z,92.93
2022-09-16T03:14:27.940Z,92.53
2022-09-16T03:17:26.789Z,91.54
2022-09-16T03:20:12.067Z,92.09
2022-09-16T03:22:44.538Z,91.73
2022-09-16T03:25:29.779Z,92.94
2022-09-16T03:28:16.915Z,92.47
2022-09-16T03:31:12.900Z,93.00
2022-09-16T03:34:05.136Z,92.93
2022-09-16T03:36:36.502Z,92.20
2022-09-16T03:39:05.836Z,92.21
2022-09-16T03:41:34.073Z,92.46
2022-09-16T03:44:04.014Z,92.73
2022-09-16T03:46:31.043Z,92.98
2022-09-16T03:48:57.822Z,92.66
2022-09-16T03:51:25.981Z,92.96
2022-09-16T03:53:53.094Z,93.78
2022-09-16T03:56:20.272Z,93.93
2022-09-16T03:58:50.170Z,94.51
2022-09-16T04:01:16.862Z,94.19
2022-09-16T04:03:43.359Z,94.02
2022-09-16T04:06:09.976Z,93.85
2022-09-16T04:08:37.198Z,93.33
2022-09-16T04:11:08.034Z,93.16
2022-09-16T04:13:35.841Z,92.91
2022-09-16T04:16:04.427Z,92.45
2022-09-16T04:18:32.033Z,92.22
2022-09-16T04:20:59.984Z,92.22
2022-09-16T04:23:27.773Z,91.98
2022-09-16T04:25:59.198Z,92.57
2022-09-16T04:28:26.024Z,92.16
2022-09-16T04:30:52.540Z,92.46
2022-09-16T04:33:19.208Z,92.40
2022-09-16T04:35:45.861Z,92.49
2022-09-16T04:38:12.236Z,92.44
2022-09-16T04:40:41.289Z,92.59
2022-09-16T04:43:07.720Z,92.35
2022-09-16T04:45:34.355Z,92.48
2022-09-16T04:48:00.860Z,92.43
2022-09-16T04:50:27.664Z,92.39
2022-09-16T04:52:54.224Z,92.55
2022-09-16T04:55:23.164Z,92.81
2022-09-16T04:57:50.286Z,92.97
2022-09-16T05:00:16.851Z,92.83
2022-09-16T05:02:46.811Z,93.03
2022-09-16T05:05:13.484Z,92.58
2022-09-16T05:07:39.858Z,92.24
2022-09-16T05:10:06.861Z,92.16
2022-09-16T05:12:33.251Z,91.85
2022-09-16T05:14:59.619Z,91.64
2022-09-16T05:17:49.325Z,91.75
2022-09-16T05:20:12.787Z,92.04
2022-09-16T05:22:39.213Z,92.43
2022-09-16T05:25:06.340Z,92.62
2022-09-16T05:27:33.204Z,93.20
2022-09-16T05:29:59.598Z,93.66
2022-09-16T05:32:26.071Z,93.92
2022-09-16T05:34:52.513Z,94.02
2022-09-16T05:37:18.883Z,93.70
2022-09-16T05:39:45.320Z,93.59
2022-09-16T05:42:11.695Z,93.21
2022-09-16T05:44:38.092Z,92.78
2022-09-16T05:47:04.632Z,92.27
2022-09-16T05:49:31.109Z,92.00
2022-09-16T05:51:57.486Z,91.86
2022-09-16T05:54:25.210Z,91.64
2022-09-16T05:56:51.891Z,91.70
2022-09-16T05:59:18.481Z,91.72
2022-09-16T06:01:45.304Z,91.94
2022-09-16T06:04:13.376Z,92.04
2022-09-16T06:06:42.874Z,91.75
2022-09-16T06:09:11.956Z,92.05
2022-09-16T06:11:41.271Z,92.28
2022-09-16T06:14:08.354Z,92.22
2022-09-16T06:16:36.086Z,92.43
2022-09-16T06:19:05.346Z,92.56
2022-09-16T06:21:31.802Z,92.72
2022-09-16T06:23:58.387Z,92.96
2022-09-16T06:26:26.469Z,93.39
2022-09-16T06:28:53.419Z,94.11
2022-09-16T06:31:26.253Z,94.70
2022-09-16T06:33:54.020Z,93.75
2022-09-16T06:36:23.253Z,92.77
2022-09-16T06:38:51.206Z,91.73
2022-09-16T06:41:19.355Z,91.33
2022-09-16T06:43:46.625Z,91.63
2022-09-16T06:46:18.758Z,91.76
2022-09-16T06:48:51.044Z,92.33
2022-09-16T06:51:23.078Z,91.93
2022-09-16T06:53:51.168Z,91.86
2022-09-16T06:56:22.709Z,91.70
2022-09-16T06:58:58.736Z,91.63
2022-09-16T07:01:29.178Z,89.86
2022-09-16T07:04:04.657Z,89.84
2022-09-16T07:06:57.755Z,88.32
2022-09-16T07:09:19.869Z,88.00
2022-09-16T07:11:51.070Z,88.13
2022-09-16T07:14:17.857Z,87.74
2022-09-16T07:16:47.541Z,88.30
2022-09-16T07:19:14.685Z,86.99
2022-09-16T07:21:44.387Z,86.55
2022-09-16T07:24:14.093Z,84.77
2022-09-16T07:26:46.687Z,84.41
2022-09-16T07:29:20.653Z,84.18
2022-09-16T07:31:50.861Z,84.25
2022-09-16T07:34:20.251Z,83.96
2022-09-16T07:36:57.307Z,84.50
2022-09-16T07:39:28.003Z,83.22
2022-09-16T07:41:55.553Z,83.32
2022-09-16T07:44:28.341Z,83.03
2022-09-16T07:46:56.008Z,82.53
2022-09-16T07:49:23.444Z,82.39
2022-09-16T07:51:53.643Z,80.65
2022-09-16T07:54:21.774Z,82.54
2022-09-16T07:56:53.540Z,81.91
2022-09-16T07:59:23.675Z,80.02
2022-09-16T08:01:56.143Z,78.02
2022-09-16T08:04:23.261Z,75.65
2022-09-16T08:06:53.464Z,75.52
2022-09-16T08:09:41.310Z,76.24
2022-09-16T08:12:18.344Z,75.27
2022-09-16T08:14:56.917Z,73.60
2022-09-16T08:17:28.668Z,75.01
2022-09-16T08:20:02.369Z,74.45
2022-09-16T08:22:29.482Z,73.98
2022-09-16T08:24:56.655Z,72.82
2022-09-16T08:27:30.028Z,73.93
2022-09-16T08:30:00.049Z,73.08
2022-09-16T08:32:27.170Z,73.51
2022-09-16T08:35:02.353Z,72.75
2022-09-16T08:37:33.024Z,72.96
2022-09-16T08:40:06.995Z,72.62
2022-09-16T08:43:06.560Z,72.22
2022-09-16T08:46:10.927Z,71.77
2022-09-16T08:49:03.878Z,72.00
2022-09-16T08:51:39.301Z,71.68
2022-09-16T08:54:34.803Z,72.49
2022-09-16T08:57:06.932Z,71.60
2022-09-16T08:59:44.238Z,71.59
2022-09-16T09:02:36.247Z,72.42
2022-09-16T09:05:16.633Z,72.27
2022-09-16T09:07:58.804Z,72.11
2022-09-16T09:10:48.349Z,71.12
2022-09-16T09:13:43.429Z,70.72
2022-09-16T09:16:35.736Z,70.28
2022-09-16T09:19:14.646Z,68.02
2022-09-16T09:21:53.705Z,66.32
2022-09-16T09:24:49.542Z,65.67
2022-09-16T09:27:30.412Z,65.21
2022-09-16T09:30:24.312Z,62.90
2022-09-16T09:33:44.897Z,64.12
2022-09-16T09:36:37.293Z,64.89
2022-09-16T09:39:31.946Z,65.32
2022-09-16T09:42:16.234Z,62.84
2022-09-16T09:45:11.545Z,62.56
2022-09-16T09:48:06.012Z,61.49
2022-09-16T09:50:56.884Z,60.76
2022-09-16T09:53:47.809Z,61.21
2022-09-16T09:56:34.046Z,58.92
2022-09-16T09:59:11.530Z,58.74
2022-09-16T10:01:38.502Z,56.74
2022-09-16T10:04:18.085Z,56.61
2022-09-16T10:06:46.283Z,55.50
2022-09-16T10:09:31.870Z,53.70
2022-09-16T10:12:06.362Z,54.72
2022-09-16T10:14:49.784Z,54.94
2022-09-16T10:17:23.383Z,55.66
2022-09-16T10:20:07.225Z,56.92
2022-09-16T10:22:38.611Z,55.95
2022-09-16T10:25:27.741Z,54.15
2022-09-16T10:28:02.543Z,53.47
2022-09-16T10:30:32.967Z,52.31
2022-09-16T10:33:18.340Z,52.60
2022-09-16T10:35:56.964Z,53.09
2022-09-16T10:38:35.775Z,52.74
2022-09-16T10:41:20.175Z,52.73
2022-09-16T10:44:06.090Z,51.85
2022-09-16T10:46:44.433Z,50.36
2022-09-16T10:49:38.066Z,50.35
2022-09-16T10:52:19.377Z,49.75
2022-09-16T10:54:52.821Z,49.40
2022-09-16T10:57:33.483Z,48.79
2022-09-16T11:00:20.557Z,49.99
2022-09-16T11:03:33.539Z,48.68
2022-09-16T11:06:38.227Z,47.43
2022-09-16T11:09:33.268Z,48.37
2022-09-16T11:12:27.570Z,50.27
2022-09-16T11:15:08.225Z,54.01
2022-09-16T11:17:49.812Z,55.36
2022-09-16T11:20:52.214Z,57.25
2022-09-16T11:23:32.480Z,61.64
2022-09-16T11:26:09.600Z,64.03
2022-09-16T11:29:11.378Z,64.42
2022-09-16T11:32:09.720Z,67.20
2022-09-16T11:34:57.147Z,68.86
2022-09-16T11:37:35.400Z,70.93
2022-09-16T11:40:21.405Z,72.61
2022-09-16T11:43:21.855Z,73.77
2022-09-16T11:46:26.762Z,75.96
2022-09-16T11:49:47.800Z,76.01
2022-09-16T11:52:34.830Z,75.77
2022-09-16T11:56:22.091Z,74.12
2022-09-16T11:59:35.830Z,71.61
2022-09-16T12:02:28.724Z,68.02
2022-09-16T12:05:03.445Z,66.44
2022-09-16T12:08:08.786Z,66.03
2022-09-16T12:10:58.440Z,61.74
2022-09-16T12:14:06.085Z,62.58
2022-09-16T12:16:51.947Z,64.00
2022-09-16T12:19:30.294Z,65.52
2022-09-16T12:22:03.084Z,66.88
2022-09-16T12:24:29.976Z,68.04
2022-09-16T12:27:15.466Z,70.43
2022-09-16T12:29:52.380Z,71.66
2022-09-16T12:32:44.086Z,73.45
2022-09-16T12:35:16.960Z,76.98
2022-09-16T12:37:49.736Z,76.98
2022-09-16T12:40:47.680Z,75.52
2022-09-16T12:43:47.686Z,73.71
2022-09-16T12:46:35.472Z,73.30
2022-09-16T12:49:24.328Z,72.71
2022-09-16T12:52:19.932Z,72.71
2022-09-16T12:55:17.163Z,72.61
2022-09-16T12:58:10.178Z,73.05
2022-09-16T13:00:50.323Z,74.48
2022-09-16T13:03:22.239Z,72.20
2022-09-16T13:05:53.159Z,71.54
2022-09-16T13:08:34.334Z,71.50
2022-09-16T13:14:05.628Z,69.41
2022-09-16T13:16:37.460Z,69.03
2022-09-16T13:19:29.027Z,69.76
2022-09-16T13:22:00.768Z,70.08
2022-09-16T13:24:57.401Z,70.36
2022-09-16T13:27:39.486Z,71.08
2022-09-16T13:30:09.266Z,72.05
2022-09-16T13:32:50.019Z,72.42
2022-09-16T13:35:20.030Z,73.40
2022-09-16T13:37:53.629Z,73.52
2022-09-16T13:40:30.435Z,73.57
2022-09-16T13:43:18.609Z,74.56
2022-09-16T13:45:50.422Z,74.99
2022-09-16T13:48:21.572Z,76.26
2022-09-16T13:50:53.446Z,78.17
2022-09-16T13:53:31.894Z,79.42
2022-09-16T13:56:23.115Z,80.25
2022-09-16T13:59:21.754Z,81.19
2022-09-16T14:02:23.677Z,82.72
2022-09-16T14:05:47.207Z,83.45
2022-09-16T14:08:39.695Z,84.81
2022-09-16T14:11:18.322Z,85.51
2022-09-16T14:13:48.234Z,85.81
2022-09-16T14:16:20.553Z,85.55
2022-09-16T14:18:56.597Z,85.92
2022-09-16T14:21:24.544Z,85.18
2022-09-16T14:23:51.373Z,85.59
2022-09-16T14:26:23.272Z,86.27
2022-09-16T14:28:50.742Z,86.47
2022-09-16T14:31:22.704Z,87.28
2022-09-16T14:33:57.207Z,88.09
2022-09-16T14:36:30.023Z,88.77
2022-09-16T14:39:09.532Z,89.33
2022-09-16T14:41:40.485Z,89.81
2022-09-16T14:44:22.706Z,91.34
2022-09-16T14:47:07.379Z,91.02
2022-09-16T14:49:39.710Z,91.21
2022-09-16T14:52:19.643Z,92.40
2022-09-16T14:54:46.132Z,91.84
2022-09-16T14:57:20.667Z,92.47
2022-09-16T14:59:47.365Z,92.41
2022-09-16T15:02:19.563Z,93.14
2022-09-16T15:04:53.858Z,93.20
2022-09-16T15:07:29.644Z,94.20
2022-09-16T15:10:09.278Z,93.82
2022-09-16T15:12:38.785Z,93.84
2022-09-16T15:15:15.645Z,94.22
2022-09-16T15:17:42.120Z,94.88
2022-09-16T15:20:25.408Z,95.71
2022-09-16T15:22:52.807Z,94.99
2022-09-16T15:25:29.118Z,95.26
2022-09-16T15:28:16.176Z,95.83
2022-09-16T15:30:55.475Z,96.06
2022-09-16T15:33:35.950Z,95.88
2022-09-16T15:36:04.323Z,96.08
2022-09-16T15:38:33.482Z,96.26
2022-09-16T15:41:20.305Z,96.89
2022-09-16T15:43:47.073Z,95.84
2022-09-16T15:46:18.190Z,95.73
2022-09-16T15:49:11.466Z,96.27
2022-09-16T15:51:49.297Z,95.36
2022-09-16T15:54:44.721Z,96.12
2022-09-16T15:57:31.063Z,95.97
2022-09-16T16:00:14.902Z,95.41
2022-09-16T16:03:01.825Z,95.71
2022-09-16T16:05:33.177Z,95.53
2022-09-16T16:08:06.134Z,95.69
2022-09-16T16:10:36.353Z,95.36
2022-09-16T16:13:06.696Z,95.55
2022-09-16T16:15:38.815Z,95.52
2022-09-16T16:18:10.579Z,95.56
2022-09-16T16:20:38.187Z,95.27
2022-09-16T16:23:04.690Z,95.38
2022-09-16T16:25:32.086Z,95.43
2022-09-16T16:27:58.448Z,95.15
2022-09-16T16:30:24.823Z,95.41
2022-09-16T16:32:51.301Z,95.62
2022-09-16T16:35:17.821Z,95.45
2022-09-16T16:37:47.241Z,95.82
2022-09-16T16:40:15.208Z,95.84
2022-09-16T16:42:43.680Z,95.67
2022-09-16T16:45:12.851Z,96.09
2022-09-16T16:47:40.042Z,96.10
2022-09-16T16:50:06.842Z,96.14
2022-09-16T16:52:33.248Z,96.48
2022-09-16T16:55:00.635Z,96.20
2022-09-16T16:57:27.103Z,96.13
2022-09-16T16:59:53.457Z,95.59
2022-09-16T17:02:20.303Z,95.25
2022-09-16T17:04:46.733Z,95.01
2022-09-16T17:07:28.463Z,94.82
2022-09-16T17:09:57.250Z,94.34
2022-09-16T17:12:23.829Z,94.07
2022-09-16T17:14:50.495Z,94.14
2022-09-16T17:17:18.860Z,93.90
2022-09-16T17:19:45.287Z,93.69
2022-09-16T17:22:12.103Z,93.41
2022-09-16T17:24:38.590Z,93.58
2022-09-16T17:27:05.327Z,93.16
2022-09-16T17:29:32.067Z,93.47
2022-09-16T17:32:00.632Z,93.33
2022-09-16T17:34:27.093Z,93.40
2022-09-16T17:36:54.458Z,93.08
2022-09-16T17:39:22.619Z,93.20
2022-09-16T17:41:50.135Z,92.85
2022-09-16T17:44:18.107Z,92.76
2022-09-16T17:46:45.165Z,92.59
2022-09-16T17:49:18.147Z,93.38
2022-09-16T17:51:44.750Z,92.67
2022-09-16T17:54:11.677Z,92.84
2022-09-16T17:56:38.091Z,92.88
2022-09-16T17:59:04.652Z,92.81
2022-09-16T18:01:31.909Z,92.79
2022-09-16T18:03:58.460Z,92.78
2022-09-16T18:06:28.350Z,92.75
2022-09-16T18:08:55.381Z,92.48
2022-09-16T18:11:22.513Z,92.48
2022-09-16T18:13:54.311Z,93.14
2022-09-16T18:16:21.693Z,92.12
2022-09-16T18:18:52.057Z,92.56
2022-09-16T18:21:19.755Z,91.95
2022-09-16T18:23:50.515Z,91.95
2022-09-16T18:26:18.678Z,92.07
2022-09-16T18:29:08.515Z,92.26
2022-09-16T18:31:34.453Z,92.00
2022-09-16T18:34:00.863Z,92.34
2022-09-16T18:36:29.872Z,92.51
2022-09-16T18:38:57.626Z,92.69
2022-09-16T18:41:30.481Z,93.11
2022-09-16T18:44:01.969Z,93.73
2022-09-16T18:46:30.638Z,93.35
2022-09-16T18:48:58.273Z,93.72
2022-09-16T18:51:27.451Z,93.83
2022-09-16T18:53:57.699Z,93.68
2022-09-16T18:56:25.566Z,93.48
2022-09-16T18:59:17.229Z,93.07
2022-09-16T19:01:40.349Z,92.63
2022-09-16T19:04:10.139Z,92.50
2022-09-16T19:06:39.166Z,92.44
2022-09-16T19:09:08.143Z,92.08
2022-09-16T19:11:36.216Z,91.82
2022-09-16T19:14:03.469Z,91.83
2022-09-16T19:16:32.693Z,91.97
2022-09-16T19:19:00.811Z,91.48
2022-09-16T19:21:28.027Z,91.78
2022-09-16T19:24:00.104Z,92.37
2022-09-16T19:26:31.886Z,92.03
2022-09-16T19:29:01.670Z,91.88
2022-09-16T19:31:29.568Z,91.97
2022-09-16T19:33:56.280Z,92.27
2022-09-16T19:36:25.782Z,92.80
2022-09-16T19:38:53.429Z,92.54
2022-09-16T19:41:23.200Z,92.91
2022-09-16T19:43:58.198Z,93.88
2022-09-16T19:46:25.447Z,92.97
2022-09-16T19:48:52.240Z,93.22
2022-09-16T19:51:22.629Z,93.35
2022-09-16T19:53:52.895Z,93.19
2022-09-16T19:56:23.469Z,93.49
2022-09-16T19:58:53.852Z,93.17
2022-09-16T20:01:24.326Z,93.31
2022-09-16T20:03:51.999Z,93.25
2022-09-16T20:06:20.943Z,93.47
2022-09-16T20:08:52.496Z,93.88
2022-09-16T20:11:20.935Z,93.58
2022-09-16T20:13:52.924Z,93.96
2022-09-16T20:16:20.954Z,93.70
2022-09-16T20:18:47.670Z,93.87
2022-09-16T20:21:17.028Z,93.91
2022-09-16T20:23:45.202Z,93.80
2022-09-16T20:26:14.927Z,94.04
2022-09-16T20:28:42.899Z,94.15
2022-09-16T20:31:13.392Z,94.27
2022-09-16T20:33:40.998Z,94.13
2022-09-16T20:36:10.800Z,94.16
2022-09-16T20:38:38.756Z,93.84
2022-09-16T20:41:07.001Z,93.54
2022-09-16T20:43:34.703Z,93.24
2022-09-16T20:46:11.481Z,93.82
2022-09-16T20:48:39.160Z,92.86
2022-09-16T20:51:11.072Z,93.47
2022-09-16T20:53:39.226Z,93.05
2022-09-16T20:56:08.141Z,92.97
2022-09-16T20:58:34.849Z,92.85
2022-09-16T21:01:24.641Z,94.09
2022-09-16T21:03:53.236Z,92.78
2022-09-16T21:06:19.939Z,92.66
2022-09-16T21:08:46.710Z,92.80
2022-09-16T21:11:15.731Z,93.02
2022-09-16T21:13:44.362Z,93.01
2022-09-16T21:16:12.941Z,93.05
2022-09-16T21:18:40.183Z,93.03
2022-09-16T21:21:11.917Z,93.13
2022-09-16T21:23:38.554Z,93.12
2022-09-16T21:26:12.978Z,94.06
2022-09-16T21:28:40.032Z,93.55
2022-09-16T21:31:12.062Z,94.08
2022-09-16T21:33:39.580Z,93.76
2022-09-16T21:36:09.165Z,93.80
2022-09-16T21:38:36.069Z,93.78
2022-09-16T21:41:05.804Z,94.35
2022-09-16T21:43:37.927Z,94.35
2022-09-16T21:46:04.868Z,94.07
2022-09-16T21:48:33.367Z,94.14
2022-09-16T21:51:05.609Z,94.74
2022-09-16T21:53:33.373Z,94.35
2022-09-16T21:56:05.493Z,94.76
2022-09-16T21:58:32.529Z,94.42
2022-09-16T22:01:06.171Z,95.35
2022-09-16T22:03:32.604Z,94.67
2022-09-16T22:05:59.119Z,94.95
2022-09-16T22:08:25.580Z,94.80
2022-09-16T22:10:52.083Z,95.25
2022-09-16T22:13:18.706Z,95.06
2022-09-16T22:15:51.659Z,96.05
2022-09-16T22:18:18.155Z,95.54
2022-09-16T22:20:44.537Z,95.56
2022-09-16T22:23:10.954Z,95.96
2022-09-16T22:25:37.413Z,95.78
2022-09-16T22:28:04.490Z,95.88
2022-09-16T22:30:33.204Z,95.67
2022-09-16T22:33:00.648Z,95.72
2022-09-16T22:35:27.383Z,95.91
2022-09-16T22:37:53.835Z,96.00
2022-09-16T22:40:20.769Z,96.11
2022-09-16T22:42:47.474Z,95.87
2022-09-16T22:45:13.916Z,95.89
2022-09-16T22:47:40.342Z,95.73
2022-09-16T22:50:07.115Z,95.80
2022-09-16T22:52:33.507Z,95.59
2022-09-16T22:54:59.893Z,95.75
2022-09-16T22:57:26.445Z,95.41
2022-09-16T22:59:52.844Z,95.36
2022-09-16T23:02:19.394Z,95.34
2022-09-16T23:04:45.810Z,95.04
2022-09-16T23:07:12.404Z,94.62
2022-09-16T23:09:38.783Z,94.82
2022-09-16T23:12:05.462Z,94.76
2022-09-16T23:14:31.838Z,94.61
2022-09-16T23:16:58.680Z,94.63
2022-09-16T23:19:25.061Z,94.45
2022-09-16T23:21:51.517Z,94.29
2022-09-16T23:24:20.614Z,94.27
2022-09-16T23:26:48.062Z,93.75
2022-09-16T23:29:15.391Z,93.47
2022-09-16T23:31:43.567Z,93.11
2022-09-16T23:34:13.049Z,93.51
2022-09-16T23:36:39.630Z,92.75
2022-09-16T23:39:07.133Z,92.53
2022-09-16T23:41:34.945Z,92.53
2022-09-16T23:44:01.676Z,92.32
2022-09-16T23:46:29.272Z,92.21
2022-09-16T23:48:55.937Z,91.64
2022-09-16T23:51:28.037Z,91.64
2022-09-16T23:53:56.917Z,91.24
2022-09-16T23:56:23.581Z,91.18
2022-09-16T23:58:51.125Z,90.68
